Time;durP1;ratioP1;P1;durP2;ratioP2;P2;SDS_P1;SDS_P2;PMS_P1;PMS_P2;Temp;Humidity;BMP_temperature;BMP_pressure;BME280_temperature;BME280_humidity;BME280_pressure;Samples;Min_cycle;Max_cycle;Signal;HPM_P1;HPM_P2
2022/03/08 00:01:45;;;;;;;21.98;13.77;;;;;;;;;;7367554;19;20136;-43
2022/03/08 00:04:17;;;;;;;23.00;14.13;;;;;;;;;;7373125;19;20147;-44
2022/03/08 00:06:49;;;;;;;23.45;14.45;;;;;;;;;;7368647;19;20145;-44
2022/03/08 00:09:19;;;;;;;24.77;14.23;;;;;;;;;;7370354;19;20128;-44
2022/03/08 00:11:51;;;;;;;19.50;12.98;;;;;;;;;;7371318;19;20130;-44
2022/03/08 00:14:21;;;;;;;27.63;13.85;;;;;;;;;;7373162;19;20233;-43
2022/03/08 00:16:53;;;;;;;22.27;12.55;;;;;;;;;;7374036;19;20144;-44
2022/03/08 00:19:25;;;;;;;25.25;14.95;;;;;;;;;;7373625;19;20131;-43
2022/03/08 00:21:57;;;;;;;20.38;11.75;;;;;;;;;;7381269;19;20131;-43
2022/03/08 00:24:26;;;;;;;16.38;12.25;;;;;;;;;;7378264;19;20139;-44
2022/03/08 00:27:01;;;;;;;17.15;11.93;;;;;;;;;;7376820;19;20147;-44
2022/03/08 00:29:30;;;;;;;18.23;12.65;;;;;;;;;;7370441;19;20479;-44
2022/03/08 00:32:00;;;;;;;19.23;12.65;;;;;;;;;;7369192;19;20716;-44
2022/03/08 00:34:32;;;;;;;18.23;12.65;;;;;;;;;;7370359;19;20756;-43
2022/03/08 00:37:04;;;;;;;18.08;11.85;;;;;;;;;;7374124;19;20150;-43
2022/03/08 00:39:37;;;;;;;17.70;11.05;;;;;;;;;;7377171;19;20207;-45
2022/03/08 00:42:11;;;;;;;21.60;14.10;;;;;;;;;;7376858;19;20127;-45
2022/03/08 00:44:44;;;;;;;17.30;10.98;;;;;;;;;;7375461;19;20714;-45
2022/03/08 00:47:14;;;;;;;16.05;9.95;;;;;;;;;;7364569;19;20231;-44
2022/03/08 00:49:43;;;;;;;15.85;11.18;;;;;;;;;;7374451;19;20183;-44
2022/03/08 00:52:16;;;;;;;19.70;12.63;;;;;;;;;;7377063;19;20162;-46
2022/03/08 00:54:45;;;;;;;19.77;11.18;;;;;;;;;;7375706;19;20563;-45
2022/03/08 00:57:20;;;;;;;14.90;10.50;;;;;;;;;;7378790;19;20132;-45
2022/03/08 00:59:50;;;;;;;16.80;10.45;;;;;;;;;;7374000;19;20171;-45
2022/03/08 01:02:22;;;;;;;18.90;12.32;;;;;;;;;;7371475;19;20148;-45
2022/03/08 01:04:57;;;;;;;16.15;11.10;;;;;;;;;;7364111;19;20152;-44
2022/03/08 01:07:26;;;;;;;16.75;11.30;;;;;;;;;;7366424;19;20128;-45
2022/03/08 01:09:57;;;;;;;16.70;11.43;;;;;;;;;;7378364;19;20132;-43
2022/03/08 01:12:30;;;;;;;17.77;10.55;;;;;;;;;;7374108;19;20605;-42
2022/03/08 01:15:01;;;;;;;21.23;11.75;;;;;;;;;;7377992;19;20594;-42
2022/03/08 01:17:33;;;;;;;19.50;11.32;;;;;;;;;;7374892;19;20132;-43
2022/03/08 01:20:03;;;;;;;19.85;12.00;;;;;;;;;;7376891;19;20128;-42
2022/03/08 01:22:36;;;;;;;21.08;11.35;;;;;;;;;;7377993;19;20221;-42
2022/03/08 01:25:09;;;;;;;21.77;12.52;;;;;;;;;;7368587;19;20138;-43
2022/03/08 01:27:41;;;;;;;17.80;10.70;;;;;;;;;;7366141;19;20124;-43
2022/03/08 01:30:15;;;;;;;19.63;10.65;;;;;;;;;;7371136;19;20134;-43
2022/03/08 01:32:47;;;;;;;13.30;10.00;;;;;;;;;;7371584;19;20162;-43
2022/03/08 01:35:18;;;;;;;17.17;10.60;;;;;;;;;;7363431;19;20257;-43
2022/03/08 01:37:50;;;;;;;20.98;10.48;;;;;;;;;;7367117;19;20608;-43
2022/03/08 01:40:20;;;;;;;13.25;9.38;;;;;;;;;;7370100;19;20593;-45
2022/03/08 01:42:53;;;;;;;17.05;9.35;;;;;;;;;;7375087;19;20132;-45
2022/03/08 01:45:26;;;;;;;15.35;10.20;;;;;;;;;;7372792;19;20132;-45
2022/03/08 01:47:56;;;;;;;15.20;9.75;;;;;;;;;;7376848;19;20138;-45
2022/03/08 01:50:25;;;;;;;15.98;10.73;;;;;;;;;;7373020;19;20139;-45
2022/03/08 01:52:55;;;;;;;15.80;11.18;;;;;;;;;;7366381;19;20128;-44
2022/03/08 01:55:25;;;;;;;14.85;9.80;;;;;;;;;;7372486;19;20157;-45
2022/03/08 01:58:00;;;;;;;14.70;9.10;;;;;;;;;;7375591;19;20475;-45
2022/03/08 02:00:32;;;;;;;18.05;10.57;;;;;;;;;;7369541;19;20525;-45
2022/03/08 02:03:07;;;;;;;16.15;9.38;;;;;;;;;;7376533;19;20751;-44
2022/03/08 02:05:38;;;;;;;12.65;9.23;;;;;;;;;;7370605;19;20145;-45
2022/03/08 02:08:13;;;;;;;18.00;10.35;;;;;;;;;;7370935;19;20139;-45
2022/03/08 02:10:45;;;;;;;14.48;10.02;;;;;;;;;;7369085;19;20139;-45
2022/03/08 02:13:19;;;;;;;14.35;9.20;;;;;;;;;;7374575;19;20485;-46
2022/03/08 02:15:50;;;;;;;15.70;9.40;;;;;;;;;;7373006;19;20139;-45
2022/03/08 02:18:20;;;;;;;17.15;9.95;;;;;;;;;;7371882;19;20603;-46
2022/03/08 02:20:50;;;;;;;14.90;10.07;;;;;;;;;;7374373;19;20132;-45
2022/03/08 02:23:25;;;;;;;14.07;10.13;;;;;;;;;;7375092;19;20128;-45
2022/03/08 02:25:55;;;;;;;15.38;10.10;;;;;;;;;;7373276;19;20142;-45
2022/03/08 02:28:26;;;;;;;13.65;9.50;;;;;;;;;;7358514;19;20143;-46
2022/03/08 02:31:01;;;;;;;16.60;10.45;;;;;;;;;;7372618;19;20146;-45
2022/03/08 02:33:30;;;;;;;14.55;9.98;;;;;;;;;;7372379;19;20140;-44
2022/03/08 02:36:00;;;;;;;18.45;10.48;;;;;;;;;;7369746;19;20845;-44
2022/03/08 02:38:37;;;;;;;16.00;9.93;;;;;;;;;;7357866;19;20147;-45
2022/03/08 02:41:25;;;;;;;17.10;9.45;;;;;;;;;;7367934;19;20148;-45
2022/03/08 02:43:55;;;;;;;18.20;11.07;;;;;;;;;;7367048;19;20143;-44
2022/03/08 02:46:25;;;;;;;15.18;9.88;;;;;;;;;;7355653;19;20621;-44
2022/03/08 02:48:57;;;;;;;15.82;10.30;;;;;;;;;;7366028;19;20135;-44
2022/03/08 02:51:26;;;;;;;18.83;11.82;;;;;;;;;;7379255;19;20127;-44
2022/03/08 02:54:01;;;;;;;16.10;10.32;;;;;;;;;;7366696;19;20702;-44
2022/03/08 02:56:31;;;;;;;18.42;11.13;;;;;;;;;;7374972;19;20128;-44
2022/03/08 02:59:03;;;;;;;20.35;10.45;;;;;;;;;;7374590;19;20123;-45
2022/03/08 03:01:33;;;;;;;17.02;10.48;;;;;;;;;;7372395;19;20131;-44
2022/03/08 03:04:04;;;;;;;14.70;10.43;;;;;;;;;;7373199;19;20508;-45
2022/03/08 03:06:36;;;;;;;13.25;9.05;;;;;;;;;;7374483;19;20130;-45
2022/03/08 03:09:11;;;;;;;20.00;10.63;;;;;;;;;;7372810;19;20142;-45
2022/03/08 03:11:41;;;;;;;17.55;9.93;;;;;;;;;;7370195;19;20150;-44
2022/03/08 03:14:11;;;;;;;19.83;10.98;;;;;;;;;;7364949;19;20247;-44
2022/03/08 03:16:42;;;;;;;14.93;10.10;;;;;;;;;;7372697;19;20123;-44
2022/03/08 03:19:16;;;;;;;19.30;10.73;;;;;;;;;;7371137;19;20146;-43
2022/03/08 03:21:46;;;;;;;19.13;10.70;;;;;;;;;;7368941;19;20716;-44
2022/03/08 03:24:19;;;;;;;17.02;11.20;;;;;;;;;;7373087;19;20748;-44
2022/03/08 03:26:48;;;;;;;16.77;10.90;;;;;;;;;;7364386;19;20208;-47
2022/03/08 03:29:18;;;;;;;16.25;10.50;;;;;;;;;;7361026;19;20695;-45
2022/03/08 03:31:52;;;;;;;20.52;11.38;;;;;;;;;;7372486;19;20131;-44
2022/03/08 03:34:27;;;;;;;20.48;11.00;;;;;;;;;;7368490;19;20189;-44
2022/03/08 03:36:56;;;;;;;17.25;10.55;;;;;;;;;;7363062;19;20119;-45
2022/03/08 03:39:29;;;;;;;19.50;11.60;;;;;;;;;;7370090;19;20140;-45
2022/03/08 03:41:58;;;;;;;20.65;10.65;;;;;;;;;;7371389;19;20135;-45
2022/03/08 03:44:28;;;;;;;14.90;10.55;;;;;;;;;;7371115;19;20139;-45
2022/03/08 03:46:58;;;;;;;17.70;10.77;;;;;;;;;;7364488;19;20187;-45
2022/03/08 03:49:27;;;;;;;18.50;10.38;;;;;;;;;;7367423;19;20136;-43
2022/03/08 03:51:57;;;;;;;17.42;9.48;;;;;;;;;;7372107;19;20250;-43
2022/03/08 03:54:31;;;;;;;14.65;10.23;;;;;;;;;;7354575;19;20219;-44
2022/03/08 03:57:02;;;;;;;16.00;10.10;;;;;;;;;;7370070;19;20139;-44
2022/03/08 03:59:34;;;;;;;14.55;9.82;;;;;;;;;;7369789;19;20222;-44
2022/03/08 04:02:03;;;;;;;15.57;9.75;;;;;;;;;;7361878;19;20135;-44
2022/03/08 04:04:33;;;;;;;16.67;10.20;;;;;;;;;;7364806;19;20135;-44
2022/03/08 04:07:02;;;;;;;16.42;10.23;;;;;;;;;;7371057;19;20144;-45
2022/03/08 04:09:35;;;;;;;16.45;8.63;;;;;;;;;;7373181;19;20146;-45
2022/03/08 04:12:05;;;;;;;16.45;9.15;;;;;;;;;;7368052;19;20586;-46
2022/03/08 04:14:34;;;;;;;19.30;9.35;;;;;;;;;;7372808;19;20534;-44
2022/03/08 04:17:04;;;;;;;13.30;8.48;;;;;;;;;;7367637;19;20135;-45
2022/03/08 04:19:36;;;;;;;12.95;8.38;;;;;;;;;;7373152;19;20127;-45
2022/03/08 04:22:08;;;;;;;14.85;8.45;;;;;;;;;;7370929;19;20628;-45
2022/03/08 04:24:40;;;;;;;12.88;7.55;;;;;;;;;;7366354;19;20622;-45
2022/03/08 04:27:10;;;;;;;12.77;8.25;;;;;;;;;;7372594;19;20127;-45
2022/03/08 04:29:39;;;;;;;14.80;8.82;;;;;;;;;;7372766;19;20590;-45
2022/03/08 04:32:09;;;;;;;12.90;8.25;;;;;;;;;;7366169;19;20127;-44
2022/03/08 04:34:41;;;;;;;12.18;7.95;;;;;;;;;;7360397;19;20223;-45
2022/03/08 04:37:11;;;;;;;12.70;8.73;;;;;;;;;;7366410;19;20239;-44
2022/03/08 04:39:43;;;;;;;14.48;7.70;;;;;;;;;;7370911;19;20147;-43
2022/03/08 04:42:13;;;;;;;12.68;8.18;;;;;;;;;;7368731;19;20610;-45
2022/03/08 04:44:45;;;;;;;11.43;8.65;;;;;;;;;;7368825;19;20134;-44
2022/03/08 04:47:17;;;;;;;12.02;7.80;;;;;;;;;;7358569;19;20161;-45
2022/03/08 04:49:49;;;;;;;15.50;8.35;;;;;;;;;;7367428;19;20772;-45
2022/03/08 04:52:19;;;;;;;14.50;8.70;;;;;;;;;;7367051;19;21137;-45
2022/03/08 04:54:51;;;;;;;13.73;8.25;;;;;;;;;;7368687;19;20128;-45
2022/03/08 04:57:21;;;;;;;13.50;9.23;;;;;;;;;;7368910;19;20123;-44
2022/03/08 04:59:55;;;;;;;12.05;8.32;;;;;;;;;;7369172;19;20145;-44
2022/03/08 05:02:25;;;;;;;11.40;7.00;;;;;;;;;;7372385;19;20128;-45
2022/03/08 05:04:57;;;;;;;13.32;7.00;;;;;;;;;;7376547;19;20135;-44
2022/03/08 05:07:28;;;;;;;9.45;7.13;;;;;;;;;;7369097;19;21637;-44
2022/03/08 05:10:01;;;;;;;13.13;7.18;;;;;;;;;;7377314;19;20136;-44
2022/03/08 05:12:33;;;;;;;8.75;6.13;;;;;;;;;;7375164;19;20134;-45
2022/03/08 05:15:05;;;;;;;9.30;7.05;;;;;;;;;;7375701;19;20131;-45
2022/03/08 05:17:37;;;;;;;16.80;7.13;;;;;;;;;;7356994;19;20155;-45
2022/03/08 05:20:08;;;;;;;10.57;7.10;;;;;;;;;;7370314;19;22903;-45
2022/03/08 05:22:37;;;;;;;12.02;7.22;;;;;;;;;;7354116;19;20151;-44
2022/03/08 05:25:13;;;;;;;10.32;7.32;;;;;;;;;;7363843;19;20191;-44
2022/03/08 05:27:43;;;;;;;12.77;8.23;;;;;;;;;;7363838;19;20127;-51
2022/03/08 05:30:15;;;;;;;11.07;6.88;;;;;;;;;;7366295;19;20147;-43
2022/03/08 05:32:47;;;;;;;10.95;6.28;;;;;;;;;;7360650;19;20139;-44
2022/03/08 05:35:17;;;;;;;12.68;8.48;;;;;;;;;;7358641;19;20148;-43
2022/03/08 05:37:49;;;;;;;13.43;7.13;;;;;;;;;;7360091;19;21749;-44
2022/03/08 05:40:21;;;;;;;12.73;7.13;;;;;;;;;;7353102;19;20127;-44
2022/03/08 05:42:51;;;;;;;9.18;7.38;;;;;;;;;;7378053;19;20131;-44
2022/03/08 05:45:21;;;;;;;12.35;7.57;;;;;;;;;;7377743;19;20131;-44
2022/03/08 05:47:55;;;;;;;8.93;6.97;;;;;;;;;;7373587;19;20138;-42
2022/03/08 05:50:25;;;;;;;11.75;6.78;;;;;;;;;;7377511;19;20501;-45
2022/03/08 05:52:54;;;;;;;8.57;6.38;;;;;;;;;;7380491;19;20132;-45
2022/03/08 05:55:27;;;;;;;8.88;6.75;;;;;;;;;;7379752;19;20132;-43
2022/03/08 05:57:56;;;;;;;10.00;6.72;;;;;;;;;;7381877;19;20161;-42
2022/03/08 06:00:29;;;;;;;11.02;7.63;;;;;;;;;;7379434;19;20131;-44
2022/03/08 06:03:03;;;;;;;12.95;6.80;;;;;;;;;;7383429;19;20134;-43
2022/03/08 06:05:35;;;;;;;9.40;6.40;;;;;;;;;;7374648;19;20173;-44
2022/03/08 06:08:05;;;;;;;9.43;6.13;;;;;;;;;;7385204;19;20138;-44
2022/03/08 06:10:38;;;;;;;12.95;7.55;;;;;;;;;;7375548;19;20306;-44
2022/03/08 06:13:10;;;;;;;11.45;6.22;;;;;;;;;;7378925;19;20481;-45
2022/03/08 06:15:42;;;;;;;9.73;6.13;;;;;;;;;;7373287;19;20613;-44
2022/03/08 06:18:11;;;;;;;10.35;7.47;;;;;;;;;;7372714;19;20128;-44
2022/03/08 06:20:43;;;;;;;11.45;7.15;;;;;;;;;;7376314;19;21247;-44
2022/03/08 06:23:15;;;;;;;9.43;6.40;;;;;;;;;;7376217;19;20127;-45
2022/03/08 06:25:47;;;;;;;12.25;6.80;;;;;;;;;;7371408;19;20142;-44
2022/03/08 06:28:20;;;;;;;12.15;6.72;;;;;;;;;;7375535;19;20127;-44
2022/03/08 06:30:49;;;;;;;9.00;7.05;;;;;;;;;;7373868;19;20188;-44
2022/03/08 06:33:21;;;;;;;14.70;8.52;;;;;;;;;;7374751;19;20151;-44
2022/03/08 06:35:53;;;;;;;19.52;8.48;;;;;;;;;;7373319;19;20184;-44
2022/03/08 06:38:23;;;;;;;12.88;8.57;;;;;;;;;;7376786;19;20215;-44
2022/03/08 06:40:56;;;;;;;16.52;9.27;;;;;;;;;;7367677;19;20132;-45
2022/03/08 06:43:28;;;;;;;16.63;10.57;;;;;;;;;;7370186;19;20597;-43
2022/03/08 06:45:57;;;;;;;14.52;9.38;;;;;;;;;;7372844;19;20719;-44
2022/03/08 06:48:32;;;;;;;18.63;9.57;;;;;;;;;;7376653;19;20134;-44
2022/03/08 06:51:01;;;;;;;16.75;10.93;;;;;;;;;;7378381;19;20169;-44
2022/03/08 06:53:32;;;;;;;23.98;11.25;;;;;;;;;;7375723;19;20720;-44
2022/03/08 06:56:06;;;;;;;17.50;10.23;;;;;;;;;;7371666;19;20842;-44
2022/03/08 06:58:36;;;;;;;19.95;11.45;;;;;;;;;;7375963;19;20145;-44
2022/03/08 07:01:08;;;;;;;24.80;13.07;;;;;;;;;;7374986;19;20148;-42
2022/03/08 07:03:37;;;;;;;25.30;12.32;;;;;;;;;;7372549;19;20132;-43
2022/03/08 07:06:12;;;;;;;21.23;12.20;;;;;;;;;;7369523;19;20135;-42
2022/03/08 07:08:42;;;;;;;16.17;10.80;;;;;;;;;;7375919;19;20131;-42
2022/03/08 07:11:17;;;;;;;14.32;9.82;;;;;;;;;;7374756;19;20155;-42
2022/03/08 07:13:49;;;;;;;18.30;12.32;;;;;;;;;;7369698;19;20127;-42
2022/03/08 07:16:23;;;;;;;21.73;10.90;;;;;;;;;;7370192;19;20681;-42
2022/03/08 07:18:52;;;;;;;18.80;10.80;;;;;;;;;;7369853;19;20138;-42
2022/03/08 07:21:24;;;;;;;19.75;10.93;;;;;;;;;;7371493;19;20132;-42
2022/03/08 07:23:56;;;;;;;17.15;10.43;;;;;;;;;;7369358;19;20215;-42
2022/03/08 07:26:31;;;;;;;14.05;10.93;;;;;;;;;;7372709;19;20635;-42
2022/03/08 07:29:02;;;;;;;22.48;11.40;;;;;;;;;;7372875;19;20142;-42
2022/03/08 07:31:32;;;;;;;21.27;10.55;;;;;;;;;;7373797;19;20246;-44
2022/03/08 07:34:02;;;;;;;17.15;10.30;;;;;;;;;;7368542;19;20182;-44
2022/03/08 07:36:34;;;;;;;17.52;9.18;;;;;;;;;;7371112;19;20593;-44
2022/03/08 07:39:04;;;;;;;9.88;7.57;;;;;;;;;;7362931;19;20144;-44
2022/03/08 07:41:36;;;;;;;16.40;10.18;;;;;;;;;;7367351;19;20134;-43
2022/03/08 07:44:10;;;;;;;12.85;7.38;;;;;;;;;;7365630;19;20525;-44
2022/03/08 07:46:45;;;;;;;13.23;8.50;;;;;;;;;;7365968;19;20143;-45
2022/03/08 07:49:17;;;;;;;16.30;8.20;;;;;;;;;;7369219;19;20123;-44
2022/03/08 07:51:48;;;;;;;11.15;7.35;;;;;;;;;;7370889;19;20139;-44
2022/03/08 07:54:21;;;;;;;14.63;8.48;;;;;;;;;;7368956;19;20135;-44
2022/03/08 07:56:55;;;;;;;12.43;8.38;;;;;;;;;;7353939;19;20139;-45
2022/03/08 07:59:26;;;;;;;9.02;7.03;;;;;;;;;;7370695;19;20157;-43
2022/03/08 08:02:00;;;;;;;12.60;7.63;;;;;;;;;;7351751;19;20131;-45
2022/03/08 08:04:30;;;;;;;7.70;6.57;;;;;;;;;;7373276;19;20135;-44
2022/03/08 08:07:00;;;;;;;11.10;7.60;;;;;;;;;;7372515;19;20497;-46
2022/03/08 08:09:32;;;;;;;7.95;6.45;;;;;;;;;;7361068;19;20135;-43
2022/03/08 08:12:06;;;;;;;12.30;7.20;;;;;;;;;;7370563;19;20649;-43
2022/03/08 08:14:39;;;;;;;11.45;7.80;;;;;;;;;;7369898;19;20157;-46
2022/03/08 08:17:09;;;;;;;11.00;7.00;;;;;;;;;;7364763;19;20586;-43
2022/03/08 08:19:39;;;;;;;8.98;7.25;;;;;;;;;;7367883;19;20491;-44
2022/03/08 08:22:08;;;;;;;11.45;7.65;;;;;;;;;;7369726;19;20570;-44
2022/03/08 08:24:38;;;;;;;8.27;6.78;;;;;;;;;;7369130;19;20160;-44
2022/03/08 08:27:10;;;;;;;9.90;7.43;;;;;;;;;;7369923;19;20131;-43
2022/03/08 08:29:42;;;;;;;11.70;8.95;;;;;;;;;;7366029;19;20154;-44
2022/03/08 08:32:14;;;;;;;8.55;6.93;;;;;;;;;;7363194;19;20205;-46
2022/03/08 08:34:45;;;;;;;13.00;7.80;;;;;;;;;;7370261;19;20167;-44
2022/03/08 08:37:15;;;;;;;9.88;7.75;;;;;;;;;;7373890;19;21136;-44
2022/03/08 08:39:49;;;;;;;8.15;6.90;;;;;;;;;;7373513;19;20179;-46
2022/03/08 08:42:27;;;;;;;9.57;6.85;;;;;;;;;;7380220;19;20127;-44
2022/03/08 08:44:56;;;;;;;9.02;6.53;;;;;;;;;;7379588;19;20128;-44
2022/03/08 08:47:29;;;;;;;8.50;6.85;;;;;;;;;;7370575;19;20152;-44
2022/03/08 08:49:58;;;;;;;8.20;6.63;;;;;;;;;;7358427;19;20136;-45
2022/03/08 08:52:28;;;;;;;8.27;7.37;;;;;;;;;;7375927;19;20135;-45
2022/03/08 08:55:00;;;;;;;7.73;6.90;;;;;;;;;;7376906;19;20384;-45
2022/03/08 08:57:34;;;;;;;8.50;6.90;;;;;;;;;;7370776;19;20376;-45
2022/03/08 09:00:04;;;;;;;7.80;6.63;;;;;;;;;;7378318;19;20797;-46
2022/03/08 09:02:34;;;;;;;8.15;5.90;;;;;;;;;;7378086;19;20975;-45
2022/03/08 09:05:06;;;;;;;8.13;6.43;;;;;;;;;;7378345;19;20142;-45
2022/03/08 09:07:38;;;;;;;9.43;6.60;;;;;;;;;;7377195;19;20375;-46
2022/03/08 09:10:11;;;;;;;6.93;6.10;;;;;;;;;;7379100;19;20487;-46
2022/03/08 09:12:49;;;;;;;6.93;6.20;;;;;;;;;;7375748;19;20898;-46
2022/03/08 09:15:19;;;;;;;8.33;6.83;;;;;;;;;;7372017;19;20375;-46
2022/03/08 09:17:49;;;;;;;8.20;6.60;;;;;;;;;;7369693;19;20376;-45
2022/03/08 09:20:19;;;;;;;7.60;6.60;;;;;;;;;;7371422;19;20364;-46
2022/03/08 09:22:48;;;;;;;6.80;6.07;;;;;;;;;;7377971;19;20395;-45
2022/03/08 09:25:18;;;;;;;8.37;6.40;;;;;;;;;;7369828;19;20397;-46
2022/03/08 09:27:51;;;;;;;7.70;6.60;;;;;;;;;;7376256;19;20395;-46
2022/03/08 09:30:21;;;;;;;8.10;6.33;;;;;;;;;;7378352;19;20751;-46
2022/03/08 09:32:51;;;;;;;8.10;6.27;;;;;;;;;;7375448;19;20384;-46
2022/03/08 09:35:23;;;;;;;7.73;5.83;;;;;;;;;;7366790;19;20431;-46
2022/03/08 09:37:55;;;;;;;6.73;5.87;;;;;;;;;;7376448;19;20913;-47
2022/03/08 09:40:27;;;;;;;7.90;6.47;;;;;;;;;;7367903;19;20454;-45
2022/03/08 09:43:00;;;;;;;6.73;6.13;;;;;;;;;;7374913;19;20392;-45
2022/03/08 09:45:29;;;;;;;6.83;6.03;;;;;;;;;;7372069;19;20981;-46
2022/03/08 09:48:01;;;;;;;6.97;6.00;;;;;;;;;;7364566;19;20401;-47
2022/03/08 09:50:31;;;;;;;8.20;5.57;;;;;;;;;;7371724;19;20364;-47
2022/03/08 09:53:01;;;;;;;8.73;6.10;;;;;;;;;;7373825;19;20417;-46
2022/03/08 09:55:31;;;;;;;6.30;5.70;;;;;;;;;;7373492;19;20387;-45
2022/03/08 09:58:04;;;;;;;8.10;5.43;;;;;;;;;;7366872;19;20890;-46
2022/03/08 10:00:35;;;;;;;6.20;5.60;;;;;;;;;;7367729;19;20380;-46
2022/03/08 10:03:11;;;;;;;8.57;5.30;;;;;;;;;;7373649;19;20372;-46
2022/03/08 10:05:43;;;;;;;5.97;5.40;;;;;;;;;;7375899;19;20480;-47
2022/03/08 10:08:14;;;;;;;7.87;5.80;;;;;;;;;;7364767;19;20818;-47
2022/03/08 10:10:50;;;;;;;7.70;5.97;;;;;;;;;;7376786;19;20714;-46
2022/03/08 10:13:25;;;;;;;7.23;5.93;;;;;;;;;;7363082;19;20962;-47
2022/03/08 10:16:10;;;;;;;6.90;6.17;;;;;;;;;;7370485;19;20380;-46
2022/03/08 10:18:43;;;;;;;6.93;6.23;;;;;;;;;;7376488;19;20376;-47
2022/03/08 10:21:27;;;;;;;7.30;6.60;;;;;;;;;;7374851;19;20962;-47
2022/03/08 10:23:58;;;;;;;7.10;5.80;;;;;;;;;;7371206;19;20391;-47
2022/03/08 10:26:30;;;;;;;7.83;5.63;;;;;;;;;;7377813;19;21008;-47
2022/03/08 10:29:07;;;;;;;6.73;6.13;;;;;;;;;;7370821;19;20380;-47
2022/03/08 10:31:39;;;;;;;9.73;6.03;;;;;;;;;;7370646;19;20766;-47
2022/03/08 10:34:17;;;;;;;6.60;6.00;;;;;;;;;;7369606;19;20458;-47
2022/03/08 10:37:03;;;;;;;7.40;5.80;;;;;;;;;;7370917;19;20360;-47
2022/03/08 10:39:32;;;;;;;7.80;7.00;;;;;;;;;;7373624;19;20985;-47
2022/03/08 10:42:03;;;;;;;7.10;6.00;;;;;;;;;;7372782;19;20372;-47
2022/03/08 10:44:40;;;;;;;6.57;5.90;;;;;;;;;;7366293;19;20387;-48
2022/03/08 10:47:13;;;;;;;6.77;6.07;;;;;;;;;;7374132;19;20382;-49
2022/03/08 10:49:51;;;;;;;6.20;5.60;;;;;;;;;;7371942;19;20996;-48
2022/03/08 10:52:29;;;;;;;6.23;5.63;;;;;;;;;;7366287;19;20375;-48
2022/03/08 10:55:11;;;;;;;8.40;5.20;;;;;;;;;;7369112;19;20945;-48
2022/03/08 10:57:42;;;;;;;6.27;5.67;;;;;;;;;;7359706;19;20384;-48
2022/03/08 11:00:16;;;;;;;5.87;5.27;;;;;;;;;;7357896;19;20372;-48
2022/03/08 11:02:51;;;;;;;6.00;5.50;;;;;;;;;;7367686;19;20702;-49
2022/03/08 11:05:24;;;;;;;6.00;5.47;;;;;;;;;;7368104;19;20367;-49
2022/03/08 11:07:54;;;;;;;6.00;5.50;;;;;;;;;;7369933;19;20376;-49
2022/03/08 11:10:27;;;;;;;7.23;5.50;;;;;;;;;;7368355;19;20965;-49
2022/03/08 11:12:57;;;;;;;5.87;4.80;;;;;;;;;;7371122;19;20388;-49
2022/03/08 11:15:35;;;;;;;5.80;5.10;;;;;;;;;;7374511;19;20382;-49
2022/03/08 11:18:06;;;;;;;5.73;5.23;;;;;;;;;;7376908;19;20383;-48
2022/03/08 11:20:36;;;;;;;5.90;5.30;;;;;;;;;;7374977;19;20379;-49
2022/03/08 11:23:06;;;;;;;5.50;5.00;;;;;;;;;;7364808;19;21261;-49
2022/03/08 11:25:37;;;;;;;7.37;5.10;;;;;;;;;;7373899;19;20489;-50
2022/03/08 11:28:10;;;;;;;5.30;4.80;;;;;;;;;;7363553;19;20368;-49
2022/03/08 11:30:44;;;;;;;7.57;5.93;;;;;;;;;;7362533;19;20372;-50
2022/03/08 11:33:19;;;;;;;6.43;5.60;;;;;;;;;;7370702;19;20406;-49
2022/03/08 11:35:53;;;;;;;7.40;6.00;;;;;;;;;;7364397;19;20445;-49
2022/03/08 11:38:22;;;;;;;6.27;5.30;;;;;;;;;;7373002;19;20428;-49
2022/03/08 11:40:57;;;;;;;6.27;5.50;;;;;;;;;;7372134;19;20863;-49
2022/03/08 11:43:39;;;;;;;7.20;6.20;;;;;;;;;;7371037;19;20423;-49
2022/03/08 11:46:19;;;;;;;6.47;5.10;;;;;;;;;;7371895;19;20939;-49
2022/03/08 11:48:55;;;;;;;10.77;7.40;;;;;;;;;;7367269;19;20368;-49
2022/03/08 11:51:26;;;;;;;6.03;5.43;;;;;;;;;;7375920;19;20375;-49
2022/03/08 11:54:13;;;;;;;7.37;6.30;;;;;;;;;;7375799;19;21139;-50
2022/03/08 11:56:47;;;;;;;7.13;5.33;;;;;;;;;;7377401;19;20383;-49
2022/03/08 11:59:19;;;;;;;7.50;5.73;;;;;;;;;;7378078;19;20379;-50
2022/03/08 12:01:57;;;;;;;7.23;6.17;;;;;;;;;;7374735;19;20371;-49
2022/03/08 12:04:29;;;;;;;7.00;5.93;;;;;;;;;;7363903;19;20463;-49
2022/03/08 12:07:00;;;;;;;6.83;6.13;;;;;;;;;;7362737;19;20376;-49
2022/03/08 12:09:30;;;;;;;7.03;6.10;;;;;;;;;;7375034;19;20368;-50
2022/03/08 12:12:02;;;;;;;6.87;6.17;;;;;;;;;;7385768;19;20360;-49
2022/03/08 12:14:35;;;;;;;6.30;5.70;;;;;;;;;;7379309;19;20418;-50
2022/03/08 12:17:13;;;;;;;8.97;5.83;;;;;;;;;;7383978;19;20439;-49
2022/03/08 12:19:46;;;;;;;8.83;5.93;;;;;;;;;;7379735;19;20383;-48
2022/03/08 12:22:17;;;;;;;10.33;7.30;;;;;;;;;;7376401;19;20409;-49
2022/03/08 12:24:49;;;;;;;14.27;8.10;;;;;;;;;;7375511;19;20726;-49
2022/03/08 12:27:21;;;;;;;9.73;7.30;;;;;;;;;;7381772;19;20388;-49
2022/03/08 12:29:55;;;;;;;7.80;5.80;;;;;;;;;;7385874;19;20427;-49
2022/03/08 12:32:34;;;;;;;7.40;6.50;;;;;;;;;;7382662;19;20384;-49
2022/03/08 12:35:09;;;;;;;8.00;7.20;;;;;;;;;;7369299;19;20454;-49
2022/03/08 12:37:42;;;;;;;7.17;6.50;;;;;;;;;;7379831;19;20379;-49
2022/03/08 12:40:24;;;;;;;6.90;6.30;;;;;;;;;;7379476;19;20424;-49
2022/03/08 12:42:58;;;;;;;9.20;6.60;;;;;;;;;;7381536;19;20917;-48
2022/03/08 12:45:29;;;;;;;8.20;7.20;;;;;;;;;;7381344;19;20372;-49
2022/03/08 12:48:03;;;;;;;7.87;6.87;;;;;;;;;;7384219;19;20464;-49
2022/03/08 12:50:36;;;;;;;13.60;12.13;;;;;;;;;;7376693;19;20743;-49
2022/03/08 12:53:07;;;;;;;7.37;6.67;;;;;;;;;;7378608;19;20384;-50
2022/03/08 12:55:41;;;;;;;6.93;6.33;;;;;;;;;;7379311;19;20398;-50
2022/03/08 12:58:12;;;;;;;6.57;5.90;;;;;;;;;;7381079;19;21135;-49
2022/03/08 13:00:43;;;;;;;20.47;7.97;;;;;;;;;;7376183;19;20368;-49
2022/03/08 13:03:16;;;;;;;9.73;7.97;;;;;;;;;;7378529;19;20387;-49
2022/03/08 13:05:50;;;;;;;7.43;6.73;;;;;;;;;;7380836;19;20376;-49
2022/03/08 13:08:21;;;;;;;9.00;6.57;;;;;;;;;;7380171;19;21158;-49
2022/03/08 13:10:52;;;;;;;10.87;8.53;;;;;;;;;;7368996;19;20459;-48
2022/03/08 13:13:24;;;;;;;7.27;6.43;;;;;;;;;;7379899;19;20416;-49
2022/03/08 13:15:54;;;;;;;7.73;5.97;;;;;;;;;;7381687;19;20886;-49
2022/03/08 13:18:27;;;;;;;7.37;6.67;;;;;;;;;;7345603;19;20503;-50
2022/03/08 13:21:00;;;;;;;9.73;6.33;;;;;;;;;;7375666;19;20387;-47
2022/03/08 13:23:35;;;;;;;7.60;6.43;;;;;;;;;;7369113;19;20387;-49
2022/03/08 13:26:06;;;;;;;6.73;5.63;;;;;;;;;;7377067;19;20357;-49
2022/03/08 13:28:36;;;;;;;6.30;5.70;;;;;;;;;;7373552;19;20407;-49
2022/03/08 13:31:07;;;;;;;7.70;6.20;;;;;;;;;;7374300;19;20380;-48
2022/03/08 13:33:40;;;;;;;6.50;5.57;;;;;;;;;;7372913;19;20409;-49
2022/03/08 13:36:13;;;;;;;6.27;5.67;;;;;;;;;;7369408;19;20378;-49
2022/03/08 13:38:43;;;;;;;5.70;5.10;;;;;;;;;;7374288;19;20870;-48
2022/03/08 13:41:14;;;;;;;6.40;5.80;;;;;;;;;;7376247;19;21035;-48
2022/03/08 13:43:45;;;;;;;5.50;4.93;;;;;;;;;;7376857;19;20368;-49
2022/03/08 13:46:18;;;;;;;5.73;5.23;;;;;;;;;;7373259;19;20372;-49
2022/03/08 13:48:56;;;;;;;6.43;5.60;;;;;;;;;;7372525;19;20375;-49
2022/03/08 13:51:30;;;;;;;6.13;5.03;;;;;;;;;;7362359;19;20376;-48
2022/03/08 13:54:01;;;;;;;7.60;5.50;;;;;;;;;;7372451;19;20404;-50
2022/03/08 13:56:43;;;;;;;6.57;5.43;;;;;;;;;;7367521;19;20376;-50
2022/03/08 13:59:27;;;;;;;7.20;4.97;;;;;;;;;;7374966;19;20367;-49
2022/03/08 14:02:04;;;;;;;7.73;5.67;;;;;;;;;;7374144;19;20715;-49
2022/03/08 14:04:39;;;;;;;6.60;5.27;;;;;;;;;;7369581;19;20375;-49
2022/03/08 14:07:11;;;;;;;5.73;5.23;;;;;;;;;;7377006;19;20372;-48
2022/03/08 14:09:43;;;;;;;6.43;5.60;;;;;;;;;;7375299;19;20901;-49
2022/03/08 14:12:18;;;;;;;6.60;6.00;;;;;;;;;;7373917;19;20788;-49
2022/03/08 14:14:47;;;;;;;5.60;5.07;;;;;;;;;;7376212;19;20889;-49
2022/03/08 14:17:17;;;;;;;6.67;6.00;;;;;;;;;;7372477;19;20379;-49
2022/03/08 14:19:53;;;;;;;6.83;5.73;;;;;;;;;;7375592;19;20389;-49
2022/03/08 14:22:23;;;;;;;7.17;6.47;;;;;;;;;;7376672;19;20368;-49
2022/03/08 14:25:02;;;;;;;9.53;6.60;;;;;;;;;;7372696;19;20428;-49
2022/03/08 14:27:51;;;;;;;6.87;5.60;;;;;;;;;;7373616;19;20401;-49
2022/03/08 14:30:24;;;;;;;6.20;5.60;;;;;;;;;;7374184;19;20370;-49
2022/03/08 14:32:54;;;;;;;7.50;6.60;;;;;;;;;;7373671;19;20391;-49
2022/03/08 14:35:27;;;;;;;8.07;6.57;;;;;;;;;;7373438;19;20499;-49
2022/03/08 14:38:04;;;;;;;7.93;6.63;;;;;;;;;;7378041;19;20372;-48
2022/03/08 14:40:43;;;;;;;9.20;6.10;;;;;;;;;;7373234;19;20393;-48
2022/03/08 14:43:15;;;;;;;7.63;5.70;;;;;;;;;;7375157;19;20391;-49
2022/03/08 14:45:44;;;;;;;9.70;8.67;;;;;;;;;;7372566;19;20461;-48
2022/03/08 14:48:14;;;;;;;8.80;7.50;;;;;;;;;;7375572;19;20376;-48
2022/03/08 14:50:50;;;;;;;10.10;6.37;;;;;;;;;;7372679;19;20360;-47
2022/03/08 14:53:22;;;;;;;7.10;6.03;;;;;;;;;;7373649;19;20732;-48
2022/03/08 14:55:52;;;;;;;8.53;6.40;;;;;;;;;;7370113;19;20368;-49
2022/03/08 14:58:26;;;;;;;7.27;6.47;;;;;;;;;;7367924;19;20407;-47
2022/03/08 15:00:58;;;;;;;8.60;5.97;;;;;;;;;;7373335;19;20360;-48
2022/03/08 15:03:42;;;;;;;8.80;6.50;;;;;;;;;;7369695;19;20399;-47